createdAt,value
2023-05-19T00:00:58.333Z,101188.63
2023-05-19T00:02:01.287Z,101197.91
2023-05-19T00:03:05.484Z,101188.03
2023-05-19T00:04:08.686Z,101189.00
2023-05-19T00:05:15.600Z,101189.13
2023-05-19T00:06:19.835Z,101190.34
2023-05-19T00:07:29.345Z,101186.66
2023-05-19T00:08:33.027Z,101180.69
2023-05-19T00:09:35.928Z,101186.19
2023-05-19T00:10:39.613Z,101185.97
2023-05-19T00:11:42.534Z,101183.50
2023-05-19T00:12:46.021Z,101181.06
2023-05-19T00:13:50.214Z,101187.16
2023-05-19T00:14:53.072Z,101181.31
2023-05-19T00:15:56.066Z,101181.19
2023-05-19T00:16:59.080Z,101180.72
2023-05-19T00:18:02.585Z,101181.06
2023-05-19T00:19:06.286Z,101181.31
2023-05-19T00:20:09.803Z,101183.13
2023-05-19T00:21:12.305Z,101186.69
2023-05-19T00:22:15.610Z,101186.06
2023-05-19T00:23:18.271Z,101179.22
2023-05-19T00:24:21.005Z,101185.94
2023-05-19T00:25:23.762Z,101183.72
2023-05-19T00:26:27.724Z,101186.53
2023-05-19T00:27:30.345Z,101186.66
2023-05-19T00:28:33.069Z,101177.84
2023-05-19T00:29:35.848Z,101184.19
2023-05-19T00:30:38.491Z,101189.06
2023-05-19T00:31:41.161Z,101180.41
2023-05-19T00:32:43.873Z,101178.81
2023-05-19T00:33:46.742Z,101181.75
2023-05-19T00:34:50.052Z,101178.03
2023-05-19T00:35:52.708Z,101174.84
2023-05-19T00:36:55.353Z,101181.31
2023-05-19T00:37:58.003Z,101178.72
2023-05-19T00:39:00.700Z,101178.72
2023-05-19T00:40:03.424Z,101176.28
2023-05-19T00:41:07.396Z,101167.59
2023-05-19T00:42:10.449Z,101185.75
2023-05-19T00:43:13.397Z,101178.78
2023-05-19T00:44:16.202Z,101181.59
2023-05-19T00:45:19.000Z,101177.31
2023-05-19T00:46:23.502Z,101179.50
2023-05-19T00:47:26.210Z,101178.88
2023-05-19T00:48:29.418Z,101173.75
2023-05-19T00:49:32.050Z,101171.28
2023-05-19T00:50:35.019Z,101176.97
2023-05-19T00:51:37.962Z,101169.28
2023-05-19T00:52:40.655Z,101176.84
2023-05-19T00:53:48.894Z,101179.84
2023-05-19T00:54:53.101Z,101180.06
2023-05-19T00:55:55.847Z,101174.06
2023-05-19T00:57:00.048Z,101174.78
2023-05-19T00:58:02.833Z,101186.91
2023-05-19T00:59:06.262Z,101187.97
2023-05-19T01:00:09.604Z,101183.69
2023-05-19T01:01:17.666Z,101178.78
2023-05-19T01:02:21.320Z,101186.81
2023-05-19T01:03:24.428Z,101182.41
2023-05-19T01:04:27.474Z,101183.53
2023-05-19T01:05:30.203Z,101185.56
2023-05-19T01:06:33.164Z,101181.41
2023-05-19T01:07:37.381Z,101180.13
2023-05-19T01:08:40.756Z,101182.38
2023-05-19T01:09:43.657Z,101184.63
2023-05-19T01:10:46.333Z,101184.53
2023-05-19T01:11:49.909Z,101188.84
2023-05-19T01:12:52.319Z,101194.56
2023-05-19T01:13:55.395Z,101186.22
2023-05-19T01:15:00.280Z,101188.38
2023-05-19T01:16:13.865Z,101187.09
2023-05-19T01:17:25.431Z,101188.16
2023-05-19T01:19:02.243Z,101190.75
2023-05-19T01:20:18.888Z,101197.16
2023-05-19T01:21:53.883Z,101194.59
2023-05-19T01:23:15.508Z,101200.78
2023-05-19T01:24:42.711Z,101203.81
2023-05-19T01:25:54.100Z,101199.31
2023-05-19T01:27:24.102Z,101201.13
2023-05-19T01:28:58.410Z,101199.94
2023-05-19T01:30:26.058Z,101210.09
2023-05-19T01:31:29.672Z,101205.94
2023-05-19T01:32:35.400Z,101193.06
2023-05-19T01:33:40.410Z,101197.78
2023-05-19T01:34:44.929Z,101194.34
2023-05-19T01:35:49.532Z,101205.22
2023-05-19T01:36:54.677Z,101203.06
2023-05-19T01:38:00.331Z,101207.41
2023-05-19T01:39:03.772Z,101207.81
2023-05-19T01:40:08.555Z,101209.25
2023-05-19T01:41:12.929Z,101205.91
2023-05-19T01:42:17.345Z,101211.16
2023-05-19T01:43:23.011Z,101213.06
2023-05-19T01:44:26.093Z,101207.00
2023-05-19T01:45:30.660Z,101210.41
2023-05-19T01:46:33.636Z,101211.25
2023-05-19T01:47:41.024Z,101210.81
2023-05-19T01:48:45.333Z,101211.78
2023-05-19T01:49:48.055Z,101211.22
2023-05-19T01:50:50.974Z,101211.22
2023-05-19T01:51:55.197Z,101217.69
2023-05-19T01:52:58.210Z,101212.66
2023-05-19T01:54:01.080Z,101207.81
2023-05-19T01:55:03.875Z,101211.34
2023-05-19T01:56:07.577Z,101207.34
2023-05-19T01:57:32.895Z,101212.13
2023-05-19T01:59:10.211Z,101210.41
2023-05-19T02:00:43.547Z,101208.59
2023-05-19T02:01:54.552Z,101208.59
2023-05-19T02:02:57.224Z,101211.56
2023-05-19T02:04:16.998Z,101209.47
2023-05-19T02:05:32.239Z,101218.44
2023-05-19T02:06:46.855Z,101214.53
2023-05-19T02:08:03.235Z,101210.72
2023-05-19T02:09:26.261Z,101208.81
2023-05-19T02:10:33.944Z,101210.72
2023-05-19T02:11:40.849Z,101216.44
2023-05-19T02:12:45.350Z,101214.84
2023-05-19T02:13:51.924Z,101219.31
2023-05-19T02:15:19.539Z,101216.66
2023-05-19T02:16:27.984Z,101212.56
2023-05-19T02:17:36.765Z,101221.03
2023-05-19T02:18:45.879Z,101216.16
2023-05-19T02:19:48.756Z,101217.31
2023-05-19T02:20:51.588Z,101221.78
2023-05-19T02:21:54.323Z,101211.31
2023-05-19T02:22:57.304Z,101215.88
2023-05-19T02:24:00.011Z,101223.31
2023-05-19T02:25:02.929Z,101219.78
2023-05-19T02:26:05.889Z,101223.66
2023-05-19T02:27:08.544Z,101228.22
2023-05-19T02:28:11.199Z,101223.03
2023-05-19T02:29:13.857Z,101224.41
2023-05-19T02:30:16.672Z,101223.84
2023-05-19T02:31:19.384Z,101225.41
2023-05-19T02:32:22.487Z,101222.44
2023-05-19T02:33:26.654Z,101223.41
2023-05-19T02:34:29.347Z,101215.59
2023-05-19T02:35:32.040Z,101217.91
2023-05-19T02:36:37.128Z,101215.06
2023-05-19T02:37:40.259Z,101215.31
2023-05-19T02:38:42.917Z,101221.78
2023-05-19T02:39:45.838Z,101217.66
2023-05-19T02:40:48.516Z,101223.28
2023-05-19T02:41:51.269Z,101220.88
2023-05-19T02:42:54.264Z,101216.50
2023-05-19T02:43:57.130Z,101219.53
2023-05-19T02:45:01.165Z,101221.00
2023-05-19T02:46:03.920Z,101216.97
2023-05-19T02:47:06.769Z,101219.41
2023-05-19T02:48:09.493Z,101217.34
2023-05-19T02:49:12.240Z,101216.66
2023-05-19T02:50:14.939Z,101220.22
2023-05-19T02:51:17.652Z,101211.78
2023-05-19T02:52:20.340Z,101207.66
2023-05-19T02:53:22.974Z,101212.53
2023-05-19T02:54:25.671Z,101208.75
2023-05-19T02:55:28.347Z,101211.50
2023-05-19T02:56:31.060Z,101213.50
2023-05-19T02:57:35.616Z,101212.47
2023-05-19T02:58:38.671Z,101204.66
2023-05-19T02:59:41.612Z,101205.88
2023-05-19T03:00:45.714Z,101200.44
2023-05-19T03:01:48.538Z,101198.13
2023-05-19T03:02:53.467Z,101202.84
2023-05-19T03:03:56.276Z,101202.09
2023-05-19T03:04:59.000Z,101202.19
2023-05-19T03:06:02.434Z,101199.44
2023-05-19T03:07:06.745Z,101201.25
2023-05-19T03:08:09.838Z,101192.75
2023-05-19T03:09:12.493Z,101197.44
2023-05-19T03:10:15.160Z,101190.56
2023-05-19T03:11:18.249Z,101197.00
2023-05-19T03:12:21.304Z,101194.63
2023-05-19T03:13:23.950Z,101192.22
2023-05-19T03:14:26.582Z,101193.31
2023-05-19T03:15:29.246Z,101199.59
2023-05-19T03:16:32.082Z,101199.75
2023-05-19T03:17:34.991Z,101195.28
2023-05-19T03:18:37.895Z,101197.16
2023-05-19T03:19:40.640Z,101202.16
2023-05-19T03:20:45.143Z,101199.72
2023-05-19T03:21:48.107Z,101196.38
2023-05-19T03:22:51.193Z,101202.63
2023-05-19T03:23:55.202Z,101201.59
2023-05-19T03:24:59.036Z,101201.22
2023-05-19T03:26:01.857Z,101205.59
2023-05-19T03:27:08.327Z,101196.81
2023-05-19T03:28:11.216Z,101190.13
2023-05-19T03:29:13.856Z,101191.66
2023-05-19T03:30:16.629Z,101188.69
2023-05-19T03:31:19.410Z,101197.69
2023-05-19T03:32:22.151Z,101187.91
2023-05-19T03:33:25.047Z,101186.03
2023-05-19T03:34:27.785Z,101190.41
2023-05-19T03:35:30.473Z,101187.75
2023-05-19T03:36:33.147Z,101196.66
2023-05-19T03:37:35.819Z,101187.13
2023-05-19T03:38:38.559Z,101187.38
2023-05-19T03:39:41.260Z,101189.25
2023-05-19T03:40:44.570Z,101179.72
2023-05-19T03:41:47.317Z,101179.78
2023-05-19T03:42:49.968Z,101182.53
2023-05-19T03:43:52.644Z,101190.63
2023-05-19T03:44:55.285Z,101189.91
2023-05-19T03:45:58.521Z,101182.00
2023-05-19T03:47:01.416Z,101180.44
2023-05-19T03:48:04.410Z,101183.25
2023-05-19T03:49:07.169Z,101176.44
2023-05-19T03:50:10.414Z,101176.63
2023-05-19T03:51:13.147Z,101179.34
2023-05-19T03:52:16.239Z,101178.56
2023-05-19T03:53:18.930Z,101180.56
2023-05-19T03:54:23.062Z,101173.84
2023-05-19T03:55:26.300Z,101182.81
2023-05-19T03:56:29.545Z,101181.09
2023-05-19T03:57:32.756Z,101173.13
2023-05-19T03:58:37.533Z,101173.28
2023-05-19T03:59:41.841Z,101172.34
2023-05-19T04:00:44.485Z,101169.84
2023-05-19T04:01:47.122Z,101173.44
2023-05-19T04:02:49.929Z,101171.91
2023-05-19T04:03:52.709Z,101174.66
2023-05-19T04:04:55.369Z,101168.56
2023-05-19T04:05:58.081Z,101180.28
2023-05-19T04:07:00.745Z,101171.50
2023-05-19T04:08:03.443Z,101170.72
2023-05-19T04:09:14.065Z,101172.53
2023-05-19T04:10:16.817Z,101170.81
2023-05-19T04:11:20.622Z,101168.00
2023-05-19T04:12:23.268Z,101166.28
2023-05-19T04:13:26.171Z,101164.25
2023-05-19T04:14:29.039Z,101162.22
2023-05-19T04:15:31.815Z,101168.31
2023-05-19T04:16:34.882Z,101162.06
2023-05-19T04:17:37.740Z,101167.53
2023-05-19T04:18:40.444Z,101157.84
2023-05-19T04:19:43.112Z,101158.78
2023-05-19T04:20:45.854Z,101165.88
2023-05-19T04:21:48.570Z,101163.41
2023-05-19T04:22:51.300Z,101161.69
2023-05-19T04:23:54.282Z,101160.97
2023-05-19T04:24:56.962Z,101163.63
2023-05-19T04:25:59.637Z,101155.81
2023-05-19T04:27:04.051Z,101159.41
2023-05-19T04:28:06.680Z,101163.88
2023-05-19T04:29:11.153Z,101156.97
2023-05-19T04:30:18.691Z,101165.88
2023-05-19T04:31:22.204Z,101158.94
2023-05-19T04:32:24.949Z,101162.44
2023-05-19T04:33:29.719Z,101158.13
2023-05-19T04:34:32.350Z,101164.31
2023-05-19T04:35:35.137Z,101154.56
2023-05-19T04:36:38.375Z,101156.28
2023-05-19T04:37:41.070Z,101159.88
2023-05-19T04:38:44.031Z,101152.84
2023-05-19T04:39:46.955Z,101152.84
2023-05-19T04:40:50.748Z,101153.88
2023-05-19T04:41:55.666Z,101141.53
2023-05-19T04:42:58.571Z,101140.59
2023-05-19T04:44:01.643Z,101140.69
2023-05-19T04:45:06.075Z,101134.50
2023-05-19T04:46:13.429Z,101138.16
2023-05-19T04:47:16.745Z,101130.19
2023-05-19T04:48:19.808Z,101137.38
2023-05-19T04:49:22.443Z,101136.69
2023-05-19T04:50:25.773Z,101129.50
2023-05-19T04:51:31.850Z,101135.75
2023-05-19T04:52:34.893Z,101131.38
2023-05-19T04:53:37.547Z,101122.69
2023-05-19T04:54:40.759Z,101130.72
2023-05-19T04:55:43.459Z,101122.06
2023-05-19T04:56:46.245Z,101118.63
2023-05-19T04:57:48.884Z,101122.06
2023-05-19T04:58:51.630Z,101119.59
2023-05-19T05:00:00.459Z,101119.66
2023-05-19T05:01:03.132Z,101124.19
2023-05-19T05:02:06.016Z,101122.53
2023-05-19T05:03:08.801Z,101114.56
2023-05-19T05:04:11.741Z,101117.22
2023-05-19T05:05:14.499Z,101115.50
2023-05-19T05:06:17.205Z,101126.13
2023-05-19T05:07:19.887Z,101112.13
2023-05-19T05:08:23.945Z,101105.91
2023-05-19T05:09:26.805Z,101111.19
2023-05-19T05:10:29.528Z,101114.78
2023-05-19T05:11:32.404Z,101113.94
2023-05-19T05:12:35.969Z,101104.25
2023-05-19T05:13:38.891Z,101107.84
2023-05-19T05:14:42.216Z,101102.69
2023-05-19T05:15:45.191Z,101105.34
2023-05-19T05:16:48.413Z,101100.03
2023-05-19T05:17:51.736Z,101104.47
2023-05-19T05:18:54.726Z,101100.09
2023-05-19T05:19:57.694Z,101097.44
2023-05-19T05:21:00.709Z,101099.25
2023-05-19T05:22:03.935Z,101089.56
2023-05-19T05:23:07.350Z,101098.38
2023-05-19T05:24:10.916Z,101090.59
2023-05-19T05:25:14.382Z,101095.91
2023-05-19T05:26:25.305Z,101089.75
2023-05-19T05:27:28.072Z,101091.59
2023-05-19T05:28:31.958Z,101083.66
2023-05-19T05:29:34.812Z,101095.91
2023-05-19T05:30:37.515Z,101086.03
2023-05-19T05:31:40.160Z,101084.31
2023-05-19T05:32:43.070Z,101092.28
2023-05-19T05:33:46.216Z,101091.44
2023-05-19T05:34:48.904Z,101089.63
2023-05-19T05:35:51.637Z,101087.84
2023-05-19T05:36:54.291Z,101088.78
2023-05-19T05:37:57.022Z,101089.63
2023-05-19T05:39:00.131Z,101078.00
2023-05-19T05:40:02.944Z,101075.34
2023-05-19T05:41:05.726Z,101080.66
2023-05-19T05:42:09.703Z,101077.06
2023-05-19T05:43:12.334Z,101078.88
2023-05-19T05:44:15.007Z,101082.38
2023-05-19T05:45:17.743Z,101075.34
2023-05-19T05:46:20.580Z,101069.81
2023-05-19T05:47:23.523Z,101075.97
2023-05-19T05:48:26.526Z,101072.09
2023-05-19T05:49:29.484Z,101075.34
2023-05-19T05:50:32.444Z,101071.63
2023-05-19T05:51:35.422Z,101077.78
2023-05-19T05:52:40.268Z,101075.06
2023-05-19T05:53:45.059Z,101073.41
2023-05-19T05:54:47.954Z,101068.19
2023-05-19T05:55:51.593Z,101070.03
2023-05-19T05:56:54.550Z,101062.25
2023-05-19T05:57:57.539Z,101061.47
2023-05-19T05:59:00.799Z,101059.75
2023-05-19T06:00:06.426Z,101056.25
2023-05-19T06:01:12.092Z,101058.03
2023-05-19T06:02:14.847Z,101056.41
2023-05-19T06:03:17.818Z,101051.16
2023-05-19T06:04:21.574Z,101055.69
2023-05-19T06:05:25.250Z,101057.47
2023-05-19T06:06:27.709Z,101050.47
2023-05-19T06:07:30.044Z,101046.09
2023-05-19T06:08:32.837Z,101047.94
2023-05-19T06:09:35.481Z,101052.41
2023-05-19T06:10:39.497Z,101053.34
2023-05-19T06:11:42.255Z,101055.28
2023-05-19T06:12:44.911Z,101056.22
2023-05-19T06:13:47.604Z,101051.94
2023-05-19T06:14:50.283Z,101048.50
2023-05-19T06:15:53.491Z,101047.78
2023-05-19T06:16:56.328Z,101043.41
2023-05-19T06:17:59.265Z,101043.47
2023-05-19T06:19:02.106Z,101041.84
2023-05-19T06:20:06.454Z,101043.63
2023-05-19T06:21:10.809Z,101034.88
2023-05-19T06:22:13.490Z,101046.44
2023-05-19T06:23:16.202Z,101042.06
2023-05-19T06:24:19.078Z,101042.91
2023-05-19T06:25:21.714Z,101038.53
2023-05-19T06:26:24.533Z,101041.34
2023-05-19T06:27:27.258Z,101042.34
2023-05-19T06:28:29.927Z,101039.69
2023-05-19T06:29:32.628Z,101033.63
2023-05-19T06:30:35.486Z,101037.22
2023-05-19T06:31:38.281Z,101038.09
2023-05-19T06:32:41.077Z,101036.47
2023-05-19T06:33:43.849Z,101034.91
2023-05-19T06:34:46.713Z,101034.03
2023-05-19T06:35:49.442Z,101032.47
2023-05-19T06:36:52.147Z,101030.75
2023-05-19T06:37:56.327Z,101029.97
2023-05-19T06:39:01.234Z,101020.44
2023-05-19T06:40:06.274Z,101017.69
2023-05-19T06:41:08.982Z,101020.53
2023-05-19T06:42:11.645Z,101018.69
2023-05-19T06:43:14.302Z,101013.50
2023-05-19T06:44:17.120Z,101013.50
2023-05-19T06:45:22.460Z,101015.44
2023-05-19T06:46:25.263Z,101010.28
2023-05-19T06:47:28.361Z,101007.84
2023-05-19T06:48:31.318Z,101002.63
2023-05-19T06:49:33.977Z,101000.19
2023-05-19T06:50:36.732Z,100998.38
2023-05-19T06:51:39.401Z,101001.19
2023-05-19T06:52:42.131Z,100998.69
2023-05-19T06:53:44.769Z,100992.47
2023-05-19T06:54:47.436Z,100995.41
2023-05-19T06:55:59.336Z,100992.97
2023-05-19T06:57:02.768Z,100986.94
2023-05-19T06:58:05.429Z,100985.88
2023-05-19T06:59:08.086Z,100988.53
2023-05-19T07:00:14.584Z,100985.09
2023-05-19T07:01:19.778Z,100985.16
2023-05-19T07:02:22.484Z,100984.38
2023-05-19T07:03:25.242Z,100983.50
2023-05-19T07:04:28.084Z,100978.34
2023-05-19T07:05:30.720Z,100981.00
2023-05-19T07:06:34.455Z,100976.63
2023-05-19T07:07:36.817Z,100981.25
2023-05-19T07:08:39.481Z,100981.25
2023-05-19T07:09:42.193Z,100980.38
2023-05-19T07:10:44.842Z,100982.31
2023-05-19T07:11:47.531Z,100984.09
2023-05-19T07:12:50.178Z,100982.31
2023-05-19T07:13:52.809Z,100979.66
2023-05-19T07:14:55.432Z,100975.22
2023-05-19T07:15:58.141Z,100977.00
2023-05-19T07:17:00.852Z,100981.44
2023-05-19T07:18:03.589Z,100966.50
2023-05-19T07:19:06.311Z,100973.56
2023-05-19T07:20:12.684Z,100971.78
2023-05-19T07:21:15.340Z,100970.06
2023-05-19T07:22:18.094Z,100974.44
2023-05-19T07:23:20.867Z,100967.34
2023-05-19T07:24:23.729Z,100965.50
2023-05-19T07:25:27.666Z,100954.91
2023-05-19T07:26:30.529Z,100967.34
2023-05-19T07:27:33.284Z,100955.03
2023-05-19T07:28:36.206Z,100957.69
2023-05-19T07:29:40.262Z,100949.75
2023-05-19T07:30:43.028Z,100942.72
2023-05-19T07:31:45.870Z,100961.06
2023-05-19T07:32:48.635Z,100954.03
2023-05-19T07:33:54.359Z,100954.03
2023-05-19T07:34:57.335Z,100960.19
2023-05-19T07:35:59.980Z,100954.91
2023-05-19T07:37:05.182Z,100948.66
2023-05-19T07:38:08.081Z,100951.38
2023-05-19T07:39:11.371Z,100953.91
2023-05-19T07:40:14.266Z,100952.25
2023-05-19T07:41:16.916Z,100951.31
2023-05-19T07:42:19.692Z,100959.34
2023-05-19T07:43:22.391Z,100954.75
2023-05-19T07:44:25.031Z,100959.19
2023-05-19T07:45:27.719Z,100952.88
2023-05-19T07:46:30.579Z,100959.19
2023-05-19T07:47:33.448Z,100955.50
2023-05-19T07:48:36.282Z,100962.63
2023-05-19T07:49:38.914Z,100963.38
2023-05-19T07:50:41.590Z,100959.88
2023-05-19T07:51:44.349Z,100956.38
2023-05-19T07:52:47.293Z,100953.72
2023-05-19T07:53:49.998Z,100953.91
2023-05-19T07:54:53.598Z,100951.25
2023-05-19T07:55:58.398Z,100954.91
2023-05-19T07:57:01.480Z,100951.19
2023-05-19T07:58:04.121Z,100952.03
2023-05-19T07:59:08.506Z,100953.91
2023-05-19T08:00:13.042Z,100950.47
2023-05-19T08:01:15.685Z,100950.22
2023-05-19T08:02:18.428Z,100950.16
2023-05-19T08:03:21.410Z,100951.78
2023-05-19T08:04:24.239Z,100946.56
2023-05-19T08:05:27.179Z,100953.59
2023-05-19T08:06:30.629Z,100947.50
2023-05-19T08:07:33.598Z,100952.78
2023-05-19T08:08:36.236Z,100947.56
2023-05-19T08:09:38.950Z,100946.81
2023-05-19T08:10:41.558Z,100952.09
2023-05-19T08:11:45.303Z,100952.97
2023-05-19T08:12:47.997Z,100948.75
2023-05-19T08:13:50.712Z,100952.31
2023-05-19T08:14:53.426Z,100945.16
2023-05-19T08:16:00.225Z,100943.44
2023-05-19T08:17:03.022Z,100945.16
2023-05-19T08:18:05.806Z,100946.03
2023-05-19T08:19:09.040Z,100940.00
2023-05-19T08:20:14.784Z,100940.94
2023-05-19T08:21:17.450Z,100943.59
2023-05-19T08:22:20.096Z,100940.00
2023-05-19T08:23:23.138Z,100935.63
2023-05-19T08:24:25.765Z,100937.44
2023-05-19T08:25:28.511Z,100937.34
2023-05-19T08:26:31.229Z,100938.28
2023-05-19T08:27:34.056Z,100943.72
2023-05-19T08:28:36.926Z,100939.28
2023-05-19T08:29:39.550Z,100936.56
2023-05-19T08:30:42.293Z,100936.56
2023-05-19T08:31:45.031Z,100943.72
2023-05-19T08:32:49.188Z,100940.13
2023-05-19T08:33:51.954Z,100944.44
2023-05-19T08:34:54.589Z,100940.88
2023-05-19T08:35:58.696Z,100941.78
2023-05-19T08:37:01.476Z,100947.16
2023-05-19T08:38:04.151Z,100944.50
2023-05-19T08:39:07.180Z,100939.34
2023-05-19T08:40:16.764Z,100938.44
2023-05-19T08:41:19.519Z,100939.28
2023-05-19T08:42:22.176Z,100941.94
2023-05-19T08:43:24.888Z,100946.38
2023-05-19T08:44:27.683Z,100946.50
2023-05-19T08:45:31.338Z,100936.84
2023-05-19T08:46:34.376Z,100940.34
2023-05-19T08:47:37.223Z,100936.84
2023-05-19T08:48:43.726Z,100936.69
2023-05-19T08:49:50.616Z,100945.38
2023-05-19T08:51:10.793Z,100934.84
2023-05-19T08:52:18.415Z,100933.97
2023-05-19T08:53:33.811Z,100941.78
2023-05-19T08:55:26.518Z,100933.97
2023-05-19T08:56:29.261Z,100940.06
2023-05-19T08:57:33.501Z,100934.97
2023-05-19T08:58:36.562Z,100936.78
2023-05-19T08:59:40.409Z,100937.28
2023-05-19T09:00:44.861Z,100936.44
2023-05-19T09:01:48.528Z,100936.44
2023-05-19T09:03:01.030Z,100940.88
2023-05-19T09:04:10.344Z,100940.88
2023-05-19T09:05:13.323Z,100942.28
2023-05-19T09:06:16.426Z,100939.56
2023-05-19T09:07:20.554Z,100941.13
2023-05-19T09:08:23.288Z,100945.28
2023-05-19T09:09:26.174Z,100942.72
2023-05-19T09:10:29.374Z,100936.56
2023-05-19T09:11:32.044Z,100941.88
2023-05-19T09:12:34.859Z,100939.06
2023-05-19T09:13:37.771Z,100935.56
2023-05-19T09:14:40.919Z,100938.88
2023-05-19T09:15:46.259Z,100939.88
2023-05-19T09:16:51.534Z,100935.44
2023-05-19T09:18:08.612Z,100941.59
2023-05-19T09:19:16.618Z,100933.72
2023-05-19T09:20:19.366Z,100932.84
2023-05-19T09:21:28.338Z,100930.19
2023-05-19T09:22:31.087Z,100930.06
2023-05-19T09:23:34.556Z,100933.50
2023-05-19T09:24:38.428Z,100933.50
2023-05-19T09:25:53.949Z,100928.19
2023-05-19T09:26:59.241Z,100930.84
2023-05-19T09:28:02.915Z,100930.84
2023-05-19T09:29:16.616Z,100931.66
2023-05-19T09:30:20.032Z,100933.56
2023-05-19T09:31:23.072Z,100935.19
2023-05-19T09:32:29.865Z,100929.75
2023-05-19T09:33:35.398Z,100936.81
2023-05-19T09:34:42.652Z,100932.25
2023-05-19T09:35:48.487Z,100925.31
2023-05-19T09:36:52.378Z,100929.66
2023-05-19T09:37:55.929Z,100931.38
2023-05-19T09:38:58.587Z,100932.09
2023-05-19T09:40:01.388Z,100930.38
2023-05-19T09:41:05.370Z,100930.31
2023-05-19T09:42:08.110Z,100931.09
2023-05-19T09:43:10.952Z,100925.81
2023-05-19T09:44:30.344Z,100931.25
2023-05-19T09:45:33.738Z,100934.63
2023-05-19T09:46:37.348Z,100941.56
2023-05-19T09:47:42.829Z,100938.97
2023-05-19T09:48:45.520Z,100937.13
2023-05-19T09:49:48.466Z,100939.63
2023-05-19T09:50:52.377Z,100936.13
2023-05-19T09:52:04.589Z,100933.47
2023-05-19T09:53:07.759Z,100945.72
2023-05-19T09:54:16.842Z,100950.84
2023-05-19T09:55:23.570Z,100943.81
2023-05-19T09:56:26.675Z,100942.13
2023-05-19T09:57:36.531Z,100944.59
2023-05-19T09:58:43.142Z,100949.03
2023-05-19T09:59:46.588Z,100948.81
2023-05-19T10:00:49.734Z,100953.28
2023-05-19T10:01:56.558Z,100949.53
2023-05-19T10:03:00.933Z,100952.06
2023-05-19T10:04:06.027Z,100946.91
2023-05-19T10:05:11.511Z,100957.28
2023-05-19T10:06:16.252Z,100956.28
2023-05-19T10:07:20.371Z,100945.75
2023-05-19T10:08:24.638Z,100955.56
2023-05-19T10:09:28.931Z,100952.84
2023-05-19T10:10:31.872Z,100956.34
2023-05-19T10:11:34.928Z,100959.00
2023-05-19T10:12:39.954Z,100956.19
2023-05-19T10:13:43.188Z,100955.28
2023-05-19T10:14:46.242Z,100957.00
2023-05-19T10:15:58.203Z,100952.63
2023-05-19T10:17:01.853Z,100959.56
2023-05-19T10:18:06.221Z,100954.81
2023-05-19T10:19:11.104Z,100956.53
2023-05-19T10:20:17.142Z,100956.59
2023-05-19T10:21:19.822Z,100957.31
2023-05-19T10:22:22.815Z,100961.59
2023-05-19T10:23:25.762Z,100954.50
2023-05-19T10:24:28.454Z,100957.00
2023-05-19T10:25:34.306Z,100960.50
2023-05-19T10:26:37.668Z,100954.09
2023-05-19T10:27:50.557Z,100961.94
2023-05-19T10:28:53.827Z,100960.06
2023-05-19T10:29:59.958Z,100952.97
2023-05-19T10:31:06.666Z,100953.75
2023-05-19T10:32:16.237Z,100956.34
2023-05-19T10:33:22.714Z,100954.41
2023-05-19T10:34:52.293Z,100949.88
2023-05-19T10:36:16.551Z,100949.72
2023-05-19T10:37:29.306Z,100953.16
2023-05-19T10:38:43.718Z,100958.41
2023-05-19T10:39:49.282Z,100947.72
2023-05-19T10:40:55.005Z,100953.78
2023-05-19T10:42:25.087Z,100955.25
2023-05-19T10:43:37.085Z,100952.38
2023-05-19T10:45:10.906Z,100958.59
2023-05-19T10:46:13.864Z,100957.69
2023-05-19T10:47:26.834Z,100963.69
2023-05-19T10:48:37.957Z,100961.75
2023-05-19T10:49:41.274Z,100959.09
2023-05-19T10:50:47.780Z,100968.69
2023-05-19T10:51:52.450Z,100957.13
2023-05-19T10:52:57.048Z,100963.91
2023-05-19T10:54:03.321Z,100970.78
2023-05-19T10:55:09.497Z,100970.00
2023-05-19T10:56:12.985Z,100972.66
2023-05-19T10:57:19.689Z,100974.50
2023-05-19T10:58:50.706Z,100973.28
2023-05-19T10:59:53.388Z,100974.84
2023-05-19T11:01:02.061Z,100960.47
2023-05-19T11:02:09.084Z,100963.72
2023-05-19T11:03:19.286Z,100974.34
2023-05-19T11:04:51.895Z,100967.56
2023-05-19T11:06:14.610Z,100956.09
2023-05-19T11:07:22.817Z,100965.63
2023-05-19T11:08:35.654Z,100955.00
2023-05-19T11:09:44.200Z,100960.13
2023-05-19T11:10:46.998Z,100964.19
2023-05-19T11:11:54.757Z,100958.72
2023-05-19T11:13:00.604Z,100960.88
2023-05-19T11:14:04.945Z,100966.78
2023-05-19T11:15:10.689Z,100968.50
2023-05-19T11:16:13.428Z,100968.25
2023-05-19T11:17:16.892Z,100963.03
2023-05-19T11:18:21.530Z,100963.66
2023-05-19T11:19:35.914Z,100956.28
2023-05-19T11:20:40.014Z,100963.16
2023-05-19T11:21:47.785Z,100960.16
2023-05-19T11:23:07.438Z,100962.63
2023-05-19T11:24:11.025Z,100965.13
2023-05-19T11:25:13.736Z,100972.84
2023-05-19T11:26:16.552Z,100962.16
2023-05-19T11:27:26.788Z,100971.84
2023-05-19T11:28:31.476Z,100969.75
2023-05-19T11:29:34.870Z,100962.56
2023-05-19T11:30:37.957Z,100956.13
2023-05-19T11:31:40.831Z,100970.97
2023-05-19T11:32:44.918Z,100964.38
2023-05-19T11:33:49.076Z,100967.44
2023-05-19T11:34:52.237Z,100966.16
2023-05-19T11:36:01.343Z,100956.47
2023-05-19T11:37:04.847Z,100954.59
2023-05-19T11:38:08.127Z,100958.78
2023-05-19T11:39:12.092Z,100961.38
2023-05-19T11:40:16.485Z,100967.38
2023-05-19T11:41:20.769Z,100959.13
2023-05-19T11:42:24.275Z,100966.09
2023-05-19T11:43:27.324Z,100961.28
2023-05-19T11:44:29.975Z,100960.16
2023-05-19T11:45:33.743Z,100962.66
2023-05-19T11:46:36.951Z,100946.50
2023-05-19T11:47:56.471Z,100958.66
2023-05-19T11:49:02.872Z,100960.13
2023-05-19T11:50:05.797Z,100959.75
2023-05-19T11:51:08.842Z,100952.53
2023-05-19T11:52:11.810Z,100957.47
2023-05-19T11:53:15.833Z,100952.56
2023-05-19T11:54:19.789Z,100956.78
2023-05-19T11:55:23.111Z,100954.88
2023-05-19T11:56:25.794Z,100950.22
2023-05-19T11:57:28.576Z,100950.91
2023-05-19T11:58:31.669Z,100948.97
2023-05-19T11:59:36.361Z,100949.66
2023-05-19T12:00:43.941Z,100946.72
2023-05-19T12:01:46.842Z,100948.16
2023-05-19T12:02:49.641Z,100952.44
2023-05-19T12:03:52.729Z,100953.97
2023-05-19T12:04:56.148Z,100950.34
2023-05-19T12:05:58.912Z,100946.34
2023-05-19T12:07:01.625Z,100944.47
2023-05-19T12:08:04.783Z,100945.13
2023-05-19T12:09:08.335Z,100951.88
2023-05-19T12:10:11.829Z,100941.78
2023-05-19T12:11:15.191Z,100954.72
2023-05-19T12:12:19.612Z,100946.53
2023-05-19T12:13:23.424Z,100945.41
2023-05-19T12:14:31.490Z,100943.50
2023-05-19T12:15:34.386Z,100945.22
2023-05-19T12:16:37.517Z,100939.47
2023-05-19T12:17:40.523Z,100933.97
2023-05-19T12:18:43.305Z,100939.84
2023-05-19T12:19:47.633Z,100941.47
2023-05-19T12:20:50.516Z,100948.34